createdAt,value
2022-09-02T13:49:45.306Z,34.17
2022-09-02T13:52:54.849Z,32.10
2022-09-02T13:55:16.811Z,30.23
2022-09-02T13:57:53.648Z,29.95
2022-09-02T14:00:36.830Z,27.77
2022-09-02T14:03:09.371Z,32.67
2022-09-02T14:05:47.422Z,27.42
2022-09-02T14:08:31.565Z,26.90
2022-09-02T14:11:08.358Z,24.92
2022-09-02T14:13:50.124Z,24.80
2022-09-02T14:16:37.864Z,23.75
2022-09-02T14:19:18.818Z,23.10
2022-09-02T14:21:52.093Z,24.63
2022-09-02T14:24:31.155Z,23.98
2022-09-02T14:27:02.812Z,23.67
2022-09-02T14:29:34.396Z,22.67
2022-09-02T14:32:17.453Z,23.58
2022-09-02T14:34:50.277Z,21.30
2022-09-02T14:37:27.008Z,23.27
2022-09-02T14:40:02.890Z,21.70
2022-09-02T14:42:33.812Z,20.25
2022-09-02T14:45:07.630Z,19.35
2022-09-02T14:47:41.720Z,20.50
2022-09-02T14:50:20.891Z,21.05
2022-09-02T14:52:54.749Z,20.33
2022-09-02T14:56:02.604Z,19.85
2022-09-02T14:58:32.715Z,18.15
2022-09-02T15:01:04.682Z,18.38
2022-09-02T15:03:40.444Z,18.95
2022-09-02T15:06:14.979Z,19.73
2022-09-02T15:08:45.673Z,17.05
2022-09-02T15:11:21.220Z,17.10
2022-09-02T15:13:51.436Z,17.05
2022-09-02T15:16:22.417Z,18.15
2022-09-02T15:18:52.576Z,17.42
2022-09-02T15:21:23.237Z,17.00
2022-09-02T15:23:53.516Z,17.27
2022-09-02T15:26:23.758Z,16.67
2022-09-02T15:28:54.451Z,17.63
2022-09-02T15:31:24.910Z,15.10
2022-09-02T15:33:55.269Z,15.75
2022-09-02T15:36:27.723Z,24.50
2022-09-02T15:38:58.525Z,17.05
2022-09-02T15:41:29.594Z,16.15
2022-09-02T15:44:01.988Z,15.40
2022-09-02T15:46:34.539Z,15.35
2022-09-02T15:49:10.668Z,15.15
2022-09-02T15:51:42.163Z,14.20
2022-09-02T15:56:48.949Z,17.38
2022-09-02T15:59:23.249Z,16.27
2022-09-02T16:01:57.469Z,13.63
2022-09-02T16:04:29.517Z,16.48
2022-09-02T16:06:59.924Z,14.23
2022-09-02T16:09:31.388Z,14.05
2022-09-02T16:12:01.531Z,13.07
2022-09-02T16:14:31.672Z,14.02
2022-09-02T16:17:01.803Z,13.55
2022-09-02T16:19:32.182Z,15.15
2022-09-02T16:22:02.508Z,14.57
2022-09-02T16:24:32.613Z,13.02
2022-09-02T16:27:03.794Z,13.55
2022-09-02T16:29:35.173Z,12.70
2022-09-02T16:34:57.903Z,13.00
2022-09-02T16:37:28.094Z,13.27
2022-09-02T16:39:58.195Z,12.95
2022-09-02T16:42:28.488Z,13.45
2022-09-02T16:44:58.671Z,12.60
2022-09-02T16:47:29.293Z,12.05
2022-09-02T16:49:59.503Z,11.40
2022-09-02T16:52:29.727Z,12.82
2022-09-02T16:55:21.806Z,12.43
2022-09-02T16:57:51.963Z,13.20
2022-09-02T17:00:22.047Z,11.98
2022-09-02T17:02:52.376Z,13.25
2022-09-02T17:05:22.548Z,12.32
2022-09-02T17:07:54.245Z,11.32
2022-09-02T17:10:24.452Z,11.70
2022-09-02T17:12:57.468Z,12.45
2022-09-02T17:15:28.270Z,11.85
2022-09-02T17:17:58.900Z,11.82
2022-09-02T17:20:30.118Z,11.80
2022-09-02T17:23:19.197Z,12.85
2022-09-02T17:25:49.395Z,10.82
2022-09-02T17:28:19.498Z,11.98
2022-09-02T17:30:50.228Z,11.50
2022-09-02T17:33:20.515Z,10.75
2022-09-02T17:36:00.704Z,12.30
2022-09-02T17:38:30.912Z,11.00
2022-09-02T17:41:19.617Z,12.25
2022-09-02T17:43:49.840Z,11.40
2022-09-02T17:46:19.931Z,11.30
2022-09-02T17:49:15.195Z,11.82
2022-09-02T17:51:41.942Z,10.70
2022-09-02T17:54:13.831Z,12.85
2022-09-02T17:57:09.778Z,12.07
2022-09-02T18:00:10.430Z,14.00
2022-09-02T18:03:01.296Z,13.77
2022-09-02T18:05:57.066Z,17.77
2022-09-02T18:08:47.617Z,15.43
2022-09-02T18:11:20.648Z,18.05
2022-09-02T18:14:04.677Z,16.98
2022-09-02T18:16:44.329Z,19.23
2022-09-02T18:19:29.354Z,19.40
2022-09-02T18:22:00.770Z,18.65
2022-09-02T18:25:03.381Z,19.83
2022-09-02T18:27:39.279Z,19.70
2022-09-02T18:30:41.029Z,23.38
2022-09-02T18:33:32.203Z,24.45
2022-09-02T18:36:32.149Z,21.65
2022-09-02T18:39:14.690Z,23.92
2022-09-02T18:41:57.163Z,25.60
2022-09-02T18:44:55.619Z,24.38
2022-09-02T18:47:47.484Z,25.05
2022-09-02T18:50:49.561Z,23.60
2022-09-02T18:53:30.227Z,25.40
2022-09-02T18:56:07.605Z,24.73
2022-09-02T18:58:57.508Z,27.05
2022-09-02T19:01:29.459Z,25.60
2022-09-02T19:04:02.890Z,26.45
2022-09-02T19:06:38.630Z,26.55
2022-09-02T19:09:15.899Z,27.58
2022-09-02T19:11:46.113Z,26.60
2022-09-02T19:14:30.975Z,25.20
2022-09-02T19:17:01.292Z,27.10
2022-09-02T19:19:31.290Z,28.55
2022-09-02T19:22:13.514Z,28.00
2022-09-02T19:25:00.215Z,27.35
2022-09-02T19:27:37.876Z,28.38
2022-09-02T19:30:17.423Z,26.55
2022-09-02T19:32:53.835Z,28.45
2022-09-02T19:35:27.216Z,27.00
2022-09-02T19:37:58.450Z,28.40
2022-09-02T19:43:07.429Z,27.58
2022-09-02T19:45:39.566Z,27.42
2022-09-02T19:48:13.357Z,26.23
2022-09-02T19:50:46.692Z,31.00
2022-09-02T19:53:32.233Z,30.48
2022-09-02T19:56:03.530Z,29.10
2022-09-02T19:58:33.622Z,29.25
2022-09-02T20:01:06.500Z,29.87
2022-09-02T20:06:23.168Z,25.33
2022-09-02T20:08:53.932Z,29.50
2022-09-02T20:11:24.115Z,30.50
2022-09-02T20:13:55.257Z,28.17
2022-09-02T20:16:28.358Z,29.42
2022-09-02T20:18:59.518Z,29.33
2022-09-02T20:21:45.227Z,31.50
2022-09-02T20:24:22.888Z,28.25
2022-09-02T20:26:52.975Z,30.50
2022-09-02T20:29:44.276Z,30.00
2022-09-02T20:35:18.045Z,31.10
2022-09-02T20:37:54.691Z,31.73
2022-09-02T20:40:30.458Z,31.85
2022-09-02T20:43:11.066Z,30.90
2022-09-02T20:45:43.790Z,32.13
2022-09-02T20:48:30.235Z,32.50
2022-09-02T20:51:24.850Z,35.28
2022-09-02T20:54:01.163Z,37.33
2022-09-02T20:56:48.797Z,31.02
2022-09-02T20:59:53.114Z,33.25
2022-09-02T21:02:28.903Z,34.88
2022-09-02T21:05:08.272Z,33.40
2022-09-02T21:07:47.596Z,34.03
2022-09-02T21:10:31.881Z,32.90
2022-09-02T21:13:39.034Z,34.60
2022-09-02T21:16:19.643Z,33.83
2022-09-02T21:19:19.725Z,34.22
2022-09-02T21:21:56.988Z,32.40
2022-09-02T21:24:30.591Z,32.05
2022-09-02T21:27:09.407Z,33.55
2022-09-02T21:29:48.780Z,32.97
2022-09-02T21:32:43.706Z,33.92
2022-09-02T21:35:21.205Z,32.85
2022-09-02T21:38:00.805Z,32.40
2022-09-02T21:41:03.258Z,32.08
2022-09-02T21:43:39.021Z,34.92
2022-09-02T21:46:22.775Z,33.53
2022-09-02T21:49:05.938Z,32.42
2022-09-02T21:51:44.383Z,31.85
2022-09-02T21:54:29.626Z,33.17
2022-09-02T21:57:12.722Z,33.63
2022-09-02T21:59:42.926Z,31.27
2022-09-02T22:02:31.413Z,31.95
2022-09-02T22:05:26.263Z,30.98
2022-09-02T22:08:22.428Z,30.08
2022-09-02T22:11:26.461Z,29.02
2022-09-02T22:14:01.947Z,31.35
2022-09-02T22:16:47.918Z,29.20
2022-09-02T22:19:19.167Z,31.83
2022-09-02T22:21:57.382Z,30.10
2022-09-02T22:24:33.266Z,31.58
2022-09-02T22:27:13.777Z,30.80
2022-09-02T22:29:53.192Z,29.70
2022-09-02T22:32:28.766Z,29.48
2022-09-02T22:35:12.824Z,29.88
2022-09-02T22:38:01.875Z,29.88
2022-09-02T22:40:38.867Z,29.13
2022-09-02T22:43:14.810Z,32.45
2022-09-02T22:46:09.416Z,33.00
2022-09-02T22:49:03.134Z,31.90
2022-09-02T22:52:03.059Z,28.08
2022-09-02T22:54:34.226Z,30.20
2022-09-02T22:57:12.747Z,28.45
2022-09-02T23:00:01.671Z,27.73
2022-09-02T23:02:57.754Z,29.45
2022-09-02T23:05:54.194Z,33.28
2022-09-02T23:08:25.179Z,30.75
2022-09-02T23:11:13.773Z,28.80
2022-09-02T23:13:46.964Z,29.35
2022-09-02T23:16:39.390Z,29.63
2022-09-02T23:19:24.312Z,29.13
2022-09-02T23:22:07.202Z,31.25
2022-09-02T23:24:56.364Z,28.67
2022-09-02T23:27:53.909Z,27.50
2022-09-02T23:30:24.280Z,28.67
2022-09-02T23:33:08.000Z,36.95
2022-09-02T23:35:50.481Z,45.45
2022-09-02T23:38:49.226Z,35.97
2022-09-02T23:41:20.697Z,41.97
2022-09-02T23:43:51.768Z,39.22
2022-09-02T23:46:58.745Z,44.55
2022-09-02T23:49:57.825Z,39.03
2022-09-02T23:52:45.401Z,45.95
2022-09-02T23:55:40.511Z,43.60
2022-09-02T23:58:25.741Z,44.75
